OMRK/RKT METAR and TAF weather

Enter ICAO airport designator
Station Type Date Time Source
OMRK METAR 2019/07/17 18:00 UTC NOAA

OMRK 171800Z 12006KT CAVOK 37/21 Q0997 A2946


Station Type Date Time Source
OMRK Decoded METAR 2019/07/17 18:00 UTC NOAA

Ras Al Khaimah International Airport, United Arab Emirates (OMRK) 25-37N 055-56E 31M
Jul 17, 2019 - 02:00 PM EDT / 2019.07.17 1800 UTC
Wind: from the ESE (120 degrees) at 7 MPH (6 KT):0
Visibility: greater than 7 mile(s):0
Temperature: 98 F (37 C)
Heat index: 104.2 F (40.1 C):1
Dew Point: 69 F (21 C)
Relative Humidity: 39%
Pressure (altimeter): 29.46 in. Hg (997 hPa)
ob: OMRK 171800Z 12006KT CAVOK 37/21 Q0997 A2946
cycle: 18

Station Type Date Time Source
OMRK TAF 2019/07/17 18:03 UTC NOAA

TAF OMRK 171654Z 1718/1900 12008KT 8000 NSC
BECMG 1809/1811 34012KT
BECMG 1816/1818 09005KT

Example: see airport list